Time;durP1;ratioP1;P1;durP2;ratioP2;P2;SDS_P1;SDS_P2;PMS_P1;PMS_P2;Temp;Humidity;BMP_temperature;BMP_pressure;BME280_temperature;BME280_humidity;BME280_pressure;Samples;Min_cycle;Max_cycle;Signal;HPM_P1;HPM_P2
2022/05/20 00:00:31;;;;;;;2.60;2.40;;;13.00;69.20;;;13.16;51.22;96009.69;5073282;22;20491;-57
2022/05/20 00:03:01;;;;;;;4.83;2.40;;;13.00;69.70;;;13.14;51.37;96010.81;5049667;28;20502;-56
2022/05/20 00:05:33;;;;;;;3.93;2.30;;;13.00;70.10;;;13.13;51.48;96006.50;5045796;28;20543;-54
2022/05/20 00:08:03;;;;;;;2.70;2.23;;;13.00;70.50;;;13.09;51.12;96004.09;5048600;28;21087;-54
2022/05/20 00:10:31;;;;;;;3.40;1.60;;;12.90;70.30;;;13.06;51.65;95998.25;5044556;28;20522;-54
2022/05/20 00:12:59;;;;;;;5.17;1.40;;;12.90;71.00;;;13.02;51.73;96002.91;5041661;28;20443;-55
2022/05/20 00:15:28;;;;;;;5.33;1.87;;;12.90;71.00;;;13.00;51.95;96004.88;5044665;28;20464;-55
2022/05/20 00:17:57;;;;;;;3.60;2.43;;;12.80;71.10;;;12.97;51.81;96009.56;5047954;28;20898;-57
2022/05/20 00:20:28;;;;;;;1.97;1.87;;;12.80;71.30;;;12.94;51.89;96013.28;5048061;28;20514;-58
2022/05/20 00:22:56;;;;;;;4.73;2.47;;;12.80;71.50;;;12.94;52.00;96017.75;5046683;28;20448;-55
2022/05/20 00:28:11;;;;;;;5.00;3.43;;;12.80;71.80;;;12.90;52.05;96017.13;5047407;28;20428;-56
2022/05/20 00:30:38;;;;;;;6.70;2.27;;;12.80;72.20;;;12.87;52.27;96018.25;5045552;28;20475;-55
2022/05/20 00:33:06;;;;;;;2.20;2.10;;;12.80;72.20;;;12.86;52.53;96027.13;5041057;28;20451;-56
2022/05/20 00:35:36;;;;;;;5.03;2.70;;;12.70;72.90;;;12.83;52.51;96030.00;5047141;28;20526;-56
2022/05/20 00:38:05;;;;;;;3.07;2.30;;;12.70;73.10;;;12.82;52.59;96030.97;5047094;28;20497;-55
2022/05/20 00:40:32;;;;;;;6.43;3.00;;;12.70;73.40;;;12.78;52.63;96026.06;5043613;28;20915;-54
2022/05/20 00:43:10;;;;;;;5.80;2.50;;;12.60;74.30;;;12.77;53.17;96035.78;5044405;28;20476;-56
2022/05/20 00:45:38;;;;;;;3.33;2.37;;;12.60;73.60;;;12.71;53.10;96025.72;5037381;28;20491;-56
2022/05/20 00:48:07;;;;;;;13.07;3.53;;;12.60;74.10;;;12.72;53.25;96032.69;5037297;28;20452;-53
2022/05/20 00:50:40;;;;;;;7.67;3.20;;;12.60;74.50;;;12.68;53.03;96026.81;5047135;28;20616;-53
2022/05/20 00:53:11;;;;;;;3.00;2.80;;;12.50;74.60;;;12.67;53.19;96026.94;5048934;28;20524;-55
2022/05/20 00:55:38;;;;;;;2.83;1.93;;;12.60;74.70;;;12.63;53.38;96034.25;5039397;28;20486;-52
2022/05/20 00:58:11;;;;;;;2.90;2.60;;;12.50;75.00;;;12.60;53.48;96028.41;5047092;28;20566;-54
2022/05/20 01:00:42;;;;;;;3.67;2.17;;;12.50;75.10;;;12.57;53.33;96028.66;5040365;28;20530;-55
2022/05/20 01:03:10;;;;;;;3.77;2.70;;;12.40;75.00;;;12.53;53.26;96020.97;5039328;28;20452;-52
2022/05/20 01:05:41;;;;;;;3.70;2.33;;;12.40;75.00;;;12.51;53.45;96030.81;5040650;28;20999;-56
2022/05/20 01:08:08;;;;;;;5.63;3.13;;;12.40;75.00;;;12.49;53.48;96031.91;5034507;28;20467;-58
2022/05/20 01:10:35;;;;;;;2.73;2.53;;;12.40;75.10;;;12.45;53.04;96028.66;5038975;28;20463;-56
2022/05/20 01:13:03;;;;;;;8.50;2.60;;;12.30;74.80;;;12.41;53.16;96029.88;5043399;28;21002;-54
2022/05/20 01:15:31;;;;;;;3.73;2.60;;;12.30;74.70;;;12.37;53.38;96029.25;5036411;28;20472;-52
2022/05/20 01:17:58;;;;;;;5.00;2.70;;;12.20;74.80;;;12.34;53.21;96018.94;5038143;28;20844;-54
2022/05/20 01:20:28;;;;;;;3.37;2.77;;;12.20;75.00;;;12.32;53.46;96025.34;5041260;28;20528;-53
2022/05/20 01:23:07;;;;;;;4.93;2.10;;;12.20;75.00;;;12.29;53.30;96020.31;5034589;28;20458;-54
2022/05/20 01:25:35;;;;;;;3.27;2.60;;;12.20;75.40;;;12.27;53.45;96011.66;5036630;28;20623;-54
2022/05/20 01:28:02;;;;;;;3.50;2.63;;;12.10;75.40;;;12.26;53.51;96017.91;5037715;28;20472;-55
2022/05/20 01:30:30;;;;;;;3.90;2.67;;;12.10;75.60;;;12.23;53.73;96020.78;5040518;28;20480;-54
2022/05/20 01:32:59;;;;;;;2.20;2.00;;;12.10;75.90;;;12.22;53.39;96019.09;5042599;28;20580;-55
2022/05/20 01:35:29;;;;;;;11.47;2.30;;;12.10;75.80;;;12.20;53.56;96016.59;5039884;28;20483;-53
2022/05/20 01:37:56;;;;;;;2.57;2.37;;;12.10;75.80;;;12.18;53.72;96021.97;5039477;28;20546;-54
2022/05/20 01:40:27;;;;;;;8.00;3.30;;;12.10;75.90;;;12.17;53.32;96022.94;5041519;28;20506;-55
2022/05/20 01:42:57;;;;;;;3.13;2.10;;;12.00;75.50;;;12.14;53.48;96019.72;5037623;28;20805;-54
2022/05/20 01:45:29;;;;;;;2.80;2.60;;;12.00;75.60;;;12.12;53.30;96019.00;5035016;28;20491;-54
2022/05/20 01:48:02;;;;;;;2.67;2.43;;;12.00;75.50;;;12.10;53.27;96027.03;5034019;28;20924;-53
2022/05/20 01:50:32;;;;;;;2.23;2.03;;;12.00;75.50;;;12.08;53.44;96021.00;5040536;28;20487;-54
2022/05/20 01:53:03;;;;;;;5.13;1.90;;;12.00;75.50;;;12.08;53.34;96017.53;5039753;28;20460;-53
2022/05/20 01:55:35;;;;;;;5.87;2.10;;;12.00;75.60;;;12.07;53.48;96026.41;5041789;28;20483;-55
2022/05/20 01:58:06;;;;;;;7.33;2.00;;;11.90;75.70;;;12.04;53.34;96024.88;5041354;28;20821;-54
2022/05/20 02:00:34;;;;;;;2.60;2.40;;;11.90;75.70;;;12.03;53.56;96025.81;5036978;28;20516;-54
2022/05/20 02:03:05;;;;;;;6.37;2.03;;;11.90;75.80;;;12.00;53.74;96029.53;5037688;28;20820;-53
2022/05/20 02:05:35;;;;;;;2.97;2.67;;;11.90;76.10;;;11.98;53.70;96023.53;5039265;28;20967;-53
2022/05/20 02:08:07;;;;;;;1.97;1.83;;;11.90;76.20;;;11.94;53.70;96030.00;5033673;28;20459;-54
2022/05/20 02:10:38;;;;;;;2.77;2.60;;;11.80;76.20;;;11.91;53.91;96026.75;5038308;28;20448;-54
2022/05/20 02:13:07;;;;;;;1.83;1.73;;;11.80;76.70;;;11.86;54.01;96031.53;5035201;28;20456;-53
2022/05/20 02:15:38;;;;;;;5.10;1.97;;;11.80;76.90;;;11.81;53.97;96032.72;5038827;28;20460;-53
2022/05/20 02:18:10;;;;;;;2.50;2.40;;;11.70;76.70;;;11.77;54.27;96031.31;5034623;28;20871;-53
2022/05/20 02:20:41;;;;;;;6.17;2.63;;;11.70;77.40;;;11.75;54.14;96033.19;5038090;28;20483;-53
2022/05/20 02:23:10;;;;;;;2.43;2.33;;;11.60;77.20;;;11.71;54.37;96034.41;5033197;28;20456;-53
2022/05/20 02:25:42;;;;;;;3.57;2.70;;;11.60;77.30;;;11.70;54.34;96047.72;5040839;28;20462;-52
2022/05/20 02:28:13;;;;;;;5.93;1.90;;;11.60;77.30;;;11.66;54.31;96045.31;5039175;28;20453;-55
2022/05/20 02:30:41;;;;;;;2.77;2.53;;;11.50;77.20;;;11.64;54.67;96041.09;5038988;28;20467;-55
2022/05/20 02:33:14;;;;;;;2.17;2.00;;;11.50;77.70;;;11.63;54.25;96042.06;5036470;28;20855;-55
2022/05/20 02:35:41;;;;;;;3.90;1.90;;;11.50;77.40;;;11.62;54.82;96043.03;5039181;28;20458;-55
2022/05/20 02:38:11;;;;;;;3.03;2.13;;;11.50;77.90;;;11.61;54.36;96036.06;5046131;28;20487;-55
2022/05/20 02:40:41;;;;;;;4.70;2.63;;;11.50;77.70;;;11.62;54.69;96038.59;5038335;28;21030;-55
2022/05/20 02:43:09;;;;;;;2.00;1.63;;;11.50;78.10;;;11.63;54.50;96037.63;5037934;28;20990;-55
2022/05/20 02:45:36;;;;;;;3.00;1.90;;;11.50;77.90;;;11.62;54.55;96035.13;5037467;28;20541;-56
2022/05/20 02:48:05;;;;;;;3.00;2.80;;;11.50;78.20;;;11.60;54.50;96037.88;5038086;28;20531;-56
2022/05/20 02:50:32;;;;;;;3.13;2.70;;;11.50;77.90;;;11.58;54.56;96031.03;5039334;28;20464;-53
2022/05/20 02:53:00;;;;;;;3.70;2.80;;;11.50;77.90;;;11.56;54.62;96033.78;5039196;28;20594;-54
2022/05/20 02:55:27;;;;;;;4.33;2.57;;;11.50;78.00;;;11.56;54.63;96023.25;5041690;28;20479;-56
2022/05/20 02:57:56;;;;;;;2.97;2.77;;;11.50;78.30;;;11.55;54.66;96024.19;5041539;28;20461;-56
2022/05/20 03:05:59;;;;;;;4.60;1.93;;;11.40;78.70;;;11.52;54.79;96028.88;4999310;28;20454;-54
2022/05/20 03:08:26;;;;;;;6.50;2.00;;;11.40;78.70;;;11.50;54.90;96031.63;5034023;28;20486;-56
2022/05/20 03:26:16;;;;;;;14.43;2.17;;;11.40;78.50;;;11.47;55.80;96035.31;5105997;27;20616;-56
2022/05/20 03:28:44;;;;;;;2.20;2.10;;;11.40;80.40;;;11.49;55.51;96043.09;5085012;28;20478;-54
2022/05/20 03:31:11;;;;;;;7.37;2.80;;;11.40;80.20;;;11.48;55.82;96039.63;5066675;28;20523;-57
2022/05/20 03:33:40;;;;;;;5.27;3.03;;;11.40;80.50;;;11.47;55.70;96045.84;5056319;28;20900;-57
2022/05/20 03:36:07;;;;;;;12.13;2.80;;;11.30;80.40;;;11.46;55.68;96043.34;5052490;28;20928;-56
2022/05/20 03:38:35;;;;;;;4.80;2.50;;;11.40;80.50;;;11.45;55.49;96053.03;5063911;28;20789;-55
2022/05/20 03:41:02;;;;;;;4.07;3.27;;;11.30;80.30;;;11.45;55.59;96052.22;5061983;28;20480;-55
2022/05/20 03:43:31;;;;;;;3.77;3.20;;;11.30;80.40;;;11.44;55.49;96054.00;5066198;28;21126;-55
2022/05/20 03:45:58;;;;;;;4.90;3.00;;;11.30;80.40;;;11.47;55.53;96061.66;5066961;28;20550;-57
2022/05/20 03:48:25;;;;;;;3.27;3.07;;;11.40;80.40;;;11.48;55.54;96058.06;5064877;28;20493;-55
2022/05/20 03:50:53;;;;;;;14.90;3.00;;;11.40;80.50;;;11.50;55.41;96062.41;5075403;28;20849;-55
2022/05/20 03:53:20;;;;;;;4.10;2.80;;;11.40;80.30;;;11.52;55.48;96060.47;5061331;28;20455;-55
2022/05/20 03:55:47;;;;;;;19.53;3.20;;;11.40;80.30;;;11.54;55.22;96067.31;5061308;28;20506;-55
2022/05/20 03:58:14;;;;;;;3.63;3.20;;;11.40;80.20;;;11.58;55.49;96065.28;5067859;28;20459;-56
2022/05/20 04:03:24;;;;;;;2.97;2.30;;;11.50;80.10;;;11.57;55.38;96082.03;5047214;28;20822;-54
2022/05/20 04:05:53;;;;;;;3.57;2.90;;;11.50;80.10;;;11.57;55.21;96077.63;5074760;28;20528;-56
2022/05/20 04:08:21;;;;;;;4.40;2.30;;;11.50;80.00;;;11.56;55.01;96075.13;5072586;28;21038;-56
2022/05/20 04:10:48;;;;;;;3.00;2.17;;;11.40;79.10;;;11.52;54.88;96074.47;5070229;28;20482;-56
2022/05/20 04:13:15;;;;;;;5.27;2.60;;;11.40;78.90;;;11.47;54.77;96077.47;5063720;28;20451;-56
2022/05/20 04:15:45;;;;;;;5.23;2.57;;;11.40;79.10;;;11.45;54.84;96076.75;5062439;28;20878;-56
2022/05/20 04:18:12;;;;;;;6.13;2.40;;;11.40;79.10;;;11.43;54.87;96076.03;5054756;28;20455;-56
2022/05/20 04:20:39;;;;;;;4.03;2.73;;;11.30;78.90;;;11.41;54.86;96075.28;5071447;28;20467;-56
2022/05/20 04:23:06;;;;;;;6.40;2.60;;;11.30;79.00;;;11.42;54.94;96079.63;5071324;28;20459;-57
2022/05/20 04:25:34;;;;;;;9.20;2.20;;;11.30;79.20;;;11.45;55.11;96074.13;5067051;28;20482;-53
2022/05/20 04:28:01;;;;;;;5.03;2.37;;;11.30;79.70;;;11.52;54.99;96073.66;5063280;28;20458;-57
2022/05/20 04:30:28;;;;;;;7.10;2.77;;;11.40;79.70;;;11.59;55.32;96074.88;5047440;28;20519;-57
2022/05/20 04:32:57;;;;;;;6.03;2.87;;;11.40;80.20;;;11.65;55.56;96077.06;5044539;28;20460;-54
2022/05/20 04:35:25;;;;;;;4.67;2.70;;;11.50;80.10;;;11.73;55.21;96076.47;5051506;28;20518;-55
2022/05/20 04:37:52;;;;;;;11.80;3.47;;;11.60;80.40;;;11.80;54.93;96083.78;5051967;28;20462;-55
2022/05/20 04:40:19;;;;;;;10.40;2.93;;;11.60;80.10;;;11.88;54.98;96088.44;5051877;28;20488;-55
2022/05/20 04:48:17;;;;;;;7.80;3.67;;;11.90;82.70;;;12.21;55.49;96086.84;5041441;28;20475;-56
2022/05/20 04:50:44;;;;;;;12.40;3.47;;;12.00;81.30;;;12.31;55.22;96089.59;5045520;28;20506;-56
2022/05/20 04:54:49;;;;;;;12.57;4.33;;;12.10;80.70;;;12.41;55.02;96092.34;5049392;28;20525;-56
2022/05/20 04:55:59;;;;;;;15.40;3.53;;;12.20;80.80;;;12.49;54.78;96092.59;5048041;28;20571;-55
2022/05/20 04:58:26;;;;;;;12.83;3.57;;;12.30;80.20;;;12.58;54.68;96099.78;5055375;28;20454;-57
2022/05/20 05:00:55;;;;;;;10.47;4.50;;;12.40;80.20;;;12.67;55.08;96092.91;5052049;28;20595;-57
2022/05/20 05:03:24;;;;;;;10.30;3.83;;;12.50;80.60;;;12.76;54.78;96096.63;5057668;28;20447;-55
2022/05/20 05:05:51;;;;;;;13.40;4.33;;;12.50;80.10;;;12.84;54.72;96095.06;5057702;28;20471;-54
2022/05/20 05:08:18;;;;;;;6.40;3.30;;;12.60;79.80;;;12.87;53.79;96104.53;5051835;28;20537;-54
2022/05/20 05:10:46;;;;;;;7.93;3.23;;;12.70;78.50;;;12.87;53.72;96094.81;5047963;28;20478;-57
2022/05/20 05:13:14;;;;;;;14.93;3.70;;;12.70;78.40;;;12.90;53.68;96105.13;5050281;28;20505;-56
2022/05/20 05:15:43;;;;;;;3.70;3.40;;;12.70;78.50;;;12.95;53.77;96098.63;5048330;28;20865;-56
2022/05/20 05:18:12;;;;;;;6.50;3.20;;;12.80;78.60;;;13.04;53.87;96103.16;5057498;28;20451;-56
2022/05/20 05:20:44;;;;;;;6.77;3.53;;;12.90;78.70;;;13.14;54.08;96106.75;5056762;28;20474;-56
2022/05/20 05:23:12;;;;;;;9.57;4.37;;;12.90;78.70;;;13.26;53.84;96100.47;5058753;28;20456;-56
2022/05/20 05:25:39;;;;;;;11.27;3.97;;;13.00;78.80;;;13.41;53.63;96100.19;5062983;28;20713;-57
2022/05/20 05:28:07;;;;;;;7.43;3.87;;;13.10;78.30;;;13.55;53.37;96091.94;5039415;28;21090;-56
2022/05/20 05:30:35;;;;;;;10.83;3.93;;;13.30;78.10;;;13.71;53.10;96096.81;5050863;28;20986;-55
2022/05/20 05:33:02;;;;;;;6.40;3.73;;;13.40;77.80;;;13.86;52.82;96102.59;5048215;28;20987;-57
2022/05/20 05:35:31;;;;;;;8.27;3.47;;;13.60;77.50;;;14.05;52.51;96101.88;5053511;28;20491;-55
2022/05/20 05:38:00;;;;;;;12.00;3.90;;;13.70;77.10;;;14.20;52.14;96089.13;5056778;28;21825;-56
2022/05/20 05:40:30;;;;;;;16.63;3.70;;;13.90;76.00;;;14.37;51.84;96089.50;5056697;28;20486;-56
2022/05/20 05:42:59;;;;;;;8.20;4.03;;;14.10;75.90;;;14.53;51.97;96095.09;5056775;28;20452;-57
2022/05/20 05:45:27;;;;;;;6.50;4.10;;;14.20;75.50;;;14.70;51.60;96094.50;5052729;28;21051;-55
2022/05/20 05:47:57;;;;;;;13.30;4.87;;;14.40;75.20;;;14.87;51.21;96095.69;5043875;28;20449;-55
2022/05/20 05:50:24;;;;;;;4.67;3.53;;;14.50;74.70;;;15.07;50.97;96093.03;5050485;28;20891;-54
2022/05/20 05:52:56;;;;;;;4.83;3.30;;;14.70;74.60;;;15.21;50.90;96094.47;5050305;28;20458;-56
2022/05/20 05:55:25;;;;;;;8.17;3.20;;;14.90;74.10;;;15.39;50.51;96102.56;5052017;28;20495;-55
2022/05/20 05:57:52;;;;;;;6.93;3.70;;;15.00;73.30;;;15.55;49.75;96094.91;5056723;28;20573;-54
2022/05/20 06:00:21;;;;;;;11.57;4.00;;;15.20;72.60;;;15.75;49.88;96097.53;5062127;28;21301;-55
2022/05/20 06:02:48;;;;;;;12.57;4.10;;;15.40;72.30;;;15.96;49.50;96097.38;5059909;28;20546;-55
2022/05/20 06:05:15;;;;;;;5.63;3.50;;;15.60;71.80;;;16.15;48.97;96103.63;5055380;28;20479;-56
2022/05/20 06:07:43;;;;;;;6.83;3.80;;;15.70;70.40;;;16.33;48.85;96099.25;5048936;28;20510;-55
2022/05/20 06:10:10;;;;;;;5.90;3.40;;;15.90;69.70;;;16.51;48.60;96088.69;5052208;28;20471;-58
2022/05/20 06:12:39;;;;;;;11.80;4.17;;;16.10;69.20;;;16.68;48.13;96089.72;5052347;28;20463;-57
2022/05/20 06:15:07;;;;;;;10.43;3.60;;;16.30;68.60;;;16.81;47.92;96084.91;5057048;28;20574;-57
2022/05/20 06:17:35;;;;;;;13.77;3.53;;;16.40;67.80;;;16.96;47.71;96085.28;5055250;28;20450;-59
2022/05/20 06:20:02;;;;;;;8.80;4.67;;;16.60;68.00;;;17.11;47.77;96080.28;5061466;28;20470;-56
2022/05/20 06:22:29;;;;;;;8.53;3.33;;;16.70;67.60;;;17.24;47.57;96079.06;5059844;28;20462;-56
2022/05/20 06:24:56;;;;;;;6.13;3.53;;;16.80;67.30;;;17.43;47.26;96086.03;5044804;28;20476;-56
2022/05/20 06:27:24;;;;;;;8.37;4.07;;;17.00;66.80;;;17.61;46.67;96073.56;5050075;28;20478;-56
2022/05/20 06:29:53;;;;;;;13.33;3.37;;;17.10;65.90;;;17.82;46.80;96073.25;5051299;28;20472;-54
2022/05/20 06:32:21;;;;;;;18.13;4.17;;;17.40;65.30;;;18.01;45.93;96080.22;5052146;28;20524;-58
2022/05/20 06:40:19;;;;;;;10.53;3.03;;;17.90;62.80;;;18.56;44.77;96071.06;5062324;28;21029;-54
2022/05/20 06:42:46;;;;;;;11.23;3.03;;;18.10;62.00;;;18.75;44.40;96082.47;5052936;28;20484;-56
2022/05/20 06:45:15;;;;;;;15.47;4.00;;;18.30;61.10;;;18.94;43.93;96078.72;5047739;28;20471;-56
2022/05/20 06:47:42;;;;;;;7.43;4.30;;;18.50;60.20;;;19.10;43.69;96078.78;5050435;28;20516;-56
2022/05/20 06:50:11;;;;;;;4.37;3.20;;;18.70;59.50;;;19.23;43.52;96070.28;5046912;28;21067;-57
2022/05/20 06:52:39;;;;;;;11.63;4.30;;;18.80;58.90;;;19.32;43.50;96071.97;5054993;28;20538;-57
2022/05/20 06:55:08;;;;;;;7.33;3.73;;;18.90;59.00;;;19.48;43.64;96075.66;5056225;28;20818;-56
2022/05/20 06:57:38;;;;;;;3.77;3.07;;;19.00;58.80;;;19.66;43.29;96088.84;5057522;28;20706;-54
2022/05/20 07:00:07;;;;;;;5.53;3.37;;;19.10;58.70;;;19.84;43.04;96075.34;5059391;28;20487;-58
2022/05/20 07:02:37;;;;;;;16.00;3.93;;;19.30;57.70;;;19.98;41.98;96077.34;5041429;28;20830;-56
2022/05/20 07:05:06;;;;;;;6.10;4.00;;;19.50;57.00;;;20.03;42.13;96072.34;5048995;28;20486;-57
2022/05/20 07:07:33;;;;;;;84.40;8.23;;;19.60;56.10;;;20.08;42.34;96070.97;5051708;28;20456;-58
2022/05/20 07:10:00;;;;;;;16.33;4.70;;;19.60;56.20;;;20.13;41.84;96063.31;5053752;28;20554;-56
2022/05/20 07:12:28;;;;;;;8.30;3.80;;;19.60;55.90;;;20.29;42.05;96068.59;5054049;28;20510;-58
2022/05/20 07:14:55;;;;;;;14.77;3.53;;;19.80;56.10;;;20.49;41.73;96068.22;5052097;28;20548;-55
2022/05/20 07:17:22;;;;;;;5.43;2.77;;;20.00;55.30;;;20.66;41.01;96066.34;5046951;28;20444;-55
2022/05/20 07:19:51;;;;;;;15.37;4.63;;;20.10;54.60;;;20.84;40.68;96063.44;5052841;28;20491;-54
2022/05/20 07:22:18;;;;;;;5.97;4.13;;;20.30;54.80;;;21.04;40.53;96062.00;5045798;28;20975;-56
2022/05/20 07:24:45;;;;;;;4.40;4.00;;;20.50;53.90;;;21.23;40.36;96062.56;5050978;28;21156;-56
2022/05/20 07:27:13;;;;;;;5.03;4.43;;;20.70;53.60;;;21.35;40.04;96066.50;5052593;28;20986;-56
2022/05/20 07:29:40;;;;;;;4.77;3.17;;;20.80;53.40;;;21.47;39.76;96067.75;5054098;28;20470;-55
2022/05/20 07:32:08;;;;;;;5.97;3.50;;;21.00;52.90;;;21.63;39.81;96057.97;5054848;28;20455;-57
2022/05/20 07:34:36;;;;;;;10.03;3.77;;;21.10;52.70;;;21.76;39.67;96052.00;5052929;28;21069;-54
2022/05/20 07:37:05;;;;;;;10.80;4.40;;;21.30;52.90;;;21.81;39.65;96054.94;5058466;28;20496;-56
2022/05/20 07:39:32;;;;;;;6.37;3.10;;;21.30;52.40;;;21.89;39.17;96054.06;5053191;28;20475;-56
2022/05/20 07:42:00;;;;;;;6.43;2.97;;;21.40;51.90;;;21.97;39.03;96059.34;5046919;28;21029;-56
2022/05/20 07:44:27;;;;;;;5.27;3.20;;;21.50;51.70;;;22.06;39.37;96050.22;5045904;28;20467;-56
2022/05/20 07:46:54;;;;;;;7.53;2.27;;;21.60;51.70;;;22.24;38.36;96051.72;5052748;28;20471;-56
2022/05/20 07:49:21;;;;;;;6.27;2.77;;;21.70;50.50;;;22.43;38.49;96045.81;5052990;28;20942;-56
2022/05/20 07:51:50;;;;;;;4.30;2.40;;;21.90;50.80;;;22.66;37.92;96050.25;5057583;28;20463;-57
2022/05/20 07:54:22;;;;;;;4.00;3.20;;;22.10;50.10;;;22.92;37.07;96047.91;5057119;28;20467;-56
2022/05/20 07:56:55;;;;;;;5.03;2.63;;;22.30;49.50;;;23.15;37.21;96049.66;5060229;28;20487;-56
2022/05/20 07:59:25;;;;;;;3.47;3.20;;;22.60;48.70;;;23.37;36.69;96044.31;5046888;28;20544;-56
2022/05/20 08:01:53;;;;;;;2.90;2.40;;;22.80;48.80;;;23.44;36.53;96032.59;5049614;28;20444;-56
2022/05/20 08:07:07;;;;;;;2.63;2.10;;;22.90;47.00;;;23.40;35.24;96033.19;5058002;28;20427;-57
2022/05/20 08:09:36;;;;;;;4.40;2.00;;;22.90;46.00;;;23.50;35.31;96031.03;5059077;28;20850;-57
2022/05/20 08:12:04;;;;;;;3.00;2.07;;;23.00;46.80;;;23.65;35.38;96038.16;5062550;28;20459;-55
2022/05/20 08:14:31;;;;;;;3.80;1.97;;;23.10;46.40;;;23.89;34.35;96029.72;5061339;28;20471;-57
2022/05/20 08:16:59;;;;;;;3.00;1.50;;;23.30;46.10;;;24.16;34.34;96019.16;5056694;28;20499;-57
2022/05/20 08:19:26;;;;;;;3.20;1.70;;;23.50;45.90;;;24.42;34.22;96026.56;5037733;28;20480;-54
2022/05/20 08:21:54;;;;;;;5.20;1.83;;;23.80;45.50;;;24.69;33.91;96019.50;5052975;28;20455;-57
2022/05/20 08:24:21;;;;;;;4.93;1.73;;;24.10;45.30;;;25.00;33.91;96023.56;5056990;28;20539;-57
2022/05/20 08:26:50;;;;;;;6.23;1.43;;;24.40;44.80;;;25.26;32.88;96015.75;5063411;28;21058;-57
2022/05/20 08:29:17;;;;;;;3.80;2.10;;;24.60;44.00;;;25.49;32.75;96016.22;5047500;28;20899;-55
2022/05/20 08:31:44;;;;;;;7.00;1.80;;;24.90;43.90;;;25.72;32.71;96012.31;5049161;28;20447;-55
2022/05/20 08:34:13;;;;;;;4.87;2.03;;;25.10;43.10;;;25.92;32.02;96006.94;5055074;28;20471;-56
2022/05/20 08:36:40;;;;;;;1.87;1.77;;;25.40;41.90;;;26.10;31.95;96006.31;5057620;28;20505;-57
2022/05/20 08:39:10;;;;;;;8.40;1.93;;;25.60;42.40;;;26.31;31.83;96005.25;5064268;28;20474;-57
2022/05/20 08:41:40;;;;;;;3.33;1.87;;;25.70;42.20;;;26.54;31.12;96003.91;5053022;28;20535;-56
2022/05/20 08:44:12;;;;;;;5.50;1.93;;;25.90;41.10;;;26.73;30.99;95997.66;5045825;28;20540;-54
2022/05/20 08:46:40;;;;;;;3.20;1.70;;;26.10;41.10;;;26.93;30.76;95992.19;5057491;28;20451;-56
2022/05/20 08:49:08;;;;;;;7.37;1.60;;;26.30;40.50;;;27.08;29.89;95994.59;5061352;28;20557;-56
2022/05/20 08:51:36;;;;;;;3.43;1.67;;;26.50;39.40;;;27.20;30.27;95997.44;5061847;28;20515;-56
2022/05/20 08:54:04;;;;;;;4.90;1.40;;;26.60;39.80;;;27.34;30.08;95998.22;5055782;28;20443;-56
2022/05/20 08:56:31;;;;;;;3.87;1.60;;;26.80;39.70;;;27.46;29.78;95991.06;5052766;28;20525;-57
2022/05/20 08:59:02;;;;;;;8.50;1.60;;;26.90;38.90;;;27.57;29.31;95986.00;5056233;28;20513;-56
2022/05/20 09:01:32;;;;;;;2.03;1.47;;;27.00;39.10;;;27.55;29.19;95978.94;5058334;28;20438;-55
2022/05/20 09:04:00;;;;;;;2.17;1.43;;;27.00;38.20;;;27.64;28.95;95975.97;5062980;28;20970;-55
2022/05/20 09:06:28;;;;;;;2.67;1.40;;;27.10;38.10;;;27.74;28.98;95970.88;5050417;28;20693;-55
2022/05/20 09:09:09;;;;;;;6.00;2.03;;;27.10;37.70;;;27.75;27.68;95964.44;5052326;28;20448;-55
2022/05/20 09:11:37;;;;;;;2.63;1.90;;;27.30;37.00;;;27.78;28.28;95961.28;5055778;28;20474;-55
2022/05/20 09:17:10;;;;;;;4.77;2.47;;;27.30;36.40;;;27.91;28.43;95955.75;5064126;28;20523;-54
2022/05/20 09:19:37;;;;;;;4.00;1.63;;;27.40;37.10;;;27.96;28.69;95952.41;5044657;28;20734;-56
2022/05/20 09:22:07;;;;;;;4.43;1.40;;;27.40;37.60;;;27.96;28.58;95955.13;5051444;28;20979;-56
2022/05/20 09:24:41;;;;;;;2.37;1.17;;;27.40;37.00;;;27.90;27.66;95943.31;5053500;28;20479;-58
2022/05/20 09:27:09;;;;;;;4.50;1.30;;;27.40;36.80;;;27.88;27.75;95945.38;5058884;28;20447;-56
2022/05/20 09:29:40;;;;;;;1.97;1.50;;;27.30;36.00;;;27.87;27.03;95934.78;5061197;28;21028;-55
2022/05/20 09:32:24;;;;;;;4.40;1.40;;;27.30;35.10;;;27.88;25.67;95934.56;5045931;28;20527;-56
2022/05/20 09:35:01;;;;;;;4.97;1.53;;;27.30;34.40;;;27.86;26.70;95931.25;5050854;28;20540;-55
2022/05/20 09:37:30;;;;;;;2.50;1.40;;;27.30;34.50;;;27.82;26.34;95923.81;5051366;28;20510;-56
2022/05/20 09:39:57;;;;;;;5.30;2.87;;;27.30;33.70;;;27.82;26.54;95924.63;5059020;28;20550;-55
2022/05/20 09:42:26;;;;;;;1.93;1.27;;;27.30;34.40;;;27.78;25.94;95918.03;5061733;28;21152;-57
2022/05/20 09:44:55;;;;;;;1.10;0.87;;;27.20;33.50;;;27.65;25.90;95918.16;5051563;28;20471;-57
2022/05/20 09:47:29;;;;;;;1.30;1.03;;;27.10;33.10;;;27.45;25.58;95911.06;5047046;28;20584;-55
2022/05/20 09:49:59;;;;;;;5.10;1.43;;;27.00;32.30;;;27.37;25.44;95914.00;5051995;28;20467;-55
2022/05/20 09:52:42;;;;;;;1.10;0.90;;;26.90;32.90;;;27.25;24.50;95908.47;5058041;28;20458;-56
2022/05/20 09:55:15;;;;;;;1.37;1.10;;;26.80;31.90;;;27.19;25.15;95915.56;5058297;28;20489;-56
2022/05/20 09:57:43;;;;;;;3.00;1.50;;;26.70;32.30;;;27.26;24.87;95910.13;5052062;28;20482;-54
2022/05/20 10:00:18;;;;;;;2.90;0.93;;;26.70;31.40;;;27.37;24.43;95911.31;5051500;28;20478;-56
2022/05/20 10:03:01;;;;;;;1.73;0.80;;;26.80;31.90;;;27.46;23.40;95906.47;5049840;28;21041;-55
2022/05/20 10:05:32;;;;;;;2.17;1.07;;;26.90;30.40;;;27.55;23.75;95905.16;5055475;28;20466;-54
2022/05/20 10:08:09;;;;;;;1.30;0.80;;;27.00;30.00;;;27.60;22.98;95888.25;5060681;28;20450;-55
2022/05/20 10:10:54;;;;;;;3.80;1.40;;;27.00;29.80;;;27.68;23.38;95885.28;5051532;28;20521;-55
2022/05/20 10:13:37;;;;;;;2.23;1.17;;;27.10;30.00;;;27.83;23.52;95883.03;5049266;28;20446;-55
2022/05/20 10:16:15;;;;;;;2.90;1.30;;;27.20;30.60;;;27.95;22.98;95887.69;5054815;28;20486;-55
2022/05/20 10:18:50;;;;;;;8.63;0.97;;;27.30;30.10;;;28.03;23.23;95880.16;5057770;28;20472;-56
2022/05/20 10:21:34;;;;;;;4.20;0.80;;;27.40;30.00;;;28.05;22.24;95883.44;5053427;28;20503;-55
2022/05/20 10:24:07;;;;;;;1.03;0.93;;;27.50;29.40;;;28.11;22.90;95873.63;5049670;28;20448;-56
2022/05/20 10:26:40;;;;;;;1.10;1.00;;;27.50;29.80;;;28.20;22.26;95871.44;5049924;28;20501;-55
2022/05/20 10:34:46;;;;;;;1.43;1.33;;;27.80;29.40;;;28.37;22.49;95858.94;5050724;28;20456;-55
2022/05/20 10:37:21;;;;;;;1.40;1.23;;;27.80;28.60;;;28.39;22.08;95853.31;5048557;28;20494;-57
2022/05/20 10:40:19;;;;;;;4.50;1.40;;;27.80;28.60;;;28.35;21.84;95857.50;5048488;28;20470;-55
2022/05/20 10:42:59;;;;;;;0.90;0.80;;;27.80;28.00;;;28.27;21.53;95853.25;5052966;28;20593;-55
2022/05/20 10:48:43;;;;;;;3.10;1.10;;;27.70;27.70;;;28.25;20.62;95844.53;5043189;28;20431;-57
2022/05/20 10:51:44;;;;;;;1.70;1.10;;;27.70;27.30;;;28.08;20.36;95838.91;5050629;28;21000;-57
2022/05/20 10:54:48;;;;;;;1.30;1.20;;;27.60;26.90;;;27.88;20.15;95839.09;5050390;28;20475;-56
2022/05/20 10:58:01;;;;;;;2.80;1.33;;;27.40;27.00;;;27.72;20.77;95835.13;5058414;28;20504;-56
2022/05/20 11:00:33;;;;;;;1.30;1.10;;;27.30;27.70;;;27.56;21.59;95839.25;5009760;28;20474;-55
2022/05/20 11:03:18;;;;;;;4.17;1.50;;;27.10;27.90;;;27.36;20.80;95825.91;5049070;28;20446;-56
2022/05/20 11:06:18;;;;;;;4.97;1.30;;;27.00;27.60;;;27.19;20.84;95834.53;5050494;28;20544;-55
2022/05/20 11:09:01;;;;;;;1.00;0.90;;;26.70;27.30;;;27.03;21.03;95824.28;5035833;28;20490;-56
2022/05/20 11:11:59;;;;;;;21.87;8.80;;;26.60;27.70;;;26.92;21.25;95814.19;5057778;28;20462;-57
2022/05/20 11:15:04;;;;;;;5.33;1.30;;;26.50;28.00;;;26.90;20.60;95824.41;5029272;28;21018;-57
2022/05/20 11:17:56;;;;;;;7.30;1.40;;;26.40;27.60;;;26.87;21.43;95817.56;5013192;28;20530;-54
2022/05/20 11:21:01;;;;;;;9.47;3.50;;;26.40;28.10;;;26.86;20.56;95824.00;5035235;28;20914;-57
2022/05/20 11:23:59;;;;;;;1.27;1.17;;;26.30;27.80;;;26.83;21.40;95811.78;5027901;28;20450;-57